Time;durP1;ratioP1;P1;durP2;ratioP2;P2;SDS_P1;SDS_P2;PMS_P1;PMS_P2;Temp;Humidity;BMP_temperature;BMP_pressure;BME280_temperature;BME280_humidity;BME280_pressure;Samples;Min_cycle;Max_cycle;Signal;HPM_P1;HPM_P2
2023/10/07 00:01:52;;;;;;;9.00;5.00;;;;;;;23.93;34.82;101700.79;102865;1291;61295;-80
2023/10/07 00:04:18;;;;;;;10.30;4.90;;;;;;;23.93;34.70;101701.66;102811;1289;60562;-80
2023/10/07 00:06:45;;;;;;;7.10;4.30;;;;;;;23.93;34.76;101701.13;102837;1290;60629;-80
2023/10/07 00:09:19;;;;;;;11.00;5.10;;;;;;;23.93;34.71;101698.45;102939;1290;61141;-80
2023/10/07 00:11:47;;;;;;;9.40;4.70;;;;;;;23.93;34.76;101696.67;102925;1292;63756;-80
2023/10/07 00:14:14;;;;;;;8.90;4.60;;;;;;;23.93;34.82;101691.07;102897;1291;73601;-80
2023/10/07 00:16:43;;;;;;;9.00;4.40;;;;;;;23.93;34.67;101690.18;102882;1289;60835;-80
2023/10/07 00:19:09;;;;;;;9.20;4.50;;;;;;;23.93;34.75;101688.23;102846;1294;60622;-80
2023/10/07 00:21:58;;;;;;;8.30;4.10;;;;;;;23.93;34.73;101688.05;102889;1293;60691;-80
2023/10/07 00:24:25;;;;;;;9.40;4.60;;;;;;;23.93;34.74;101690.56;102932;1293;73403;-79
2023/10/07 00:26:53;;;;;;;7.00;4.30;;;;;;;23.92;34.84;101686.11;102787;1293;60873;-80
2023/10/07 00:29:23;;;;;;;9.10;4.70;;;;;;;23.93;34.76;101687.51;102834;1291;61054;-80
2023/10/07 00:31:52;;;;;;;9.10;4.60;;;;;;;23.92;34.72;101688.40;102807;1291;72466;-80
2023/10/07 00:34:26;;;;;;;9.50;4.70;;;;;;;23.92;34.82;101686.63;102860;1291;74700;-79
2023/10/07 00:36:56;;;;;;;11.10;4.40;;;;;;;23.92;34.88;101688.28;102886;1291;60474;-80
2023/10/07 00:39:22;;;;;;;9.70;4.50;;;;;;;23.92;34.74;101686.84;102980;1291;60903;-80
2023/10/07 00:41:53;;;;;;;8.40;4.90;;;;;;;23.92;34.79;101686.64;102855;1291;62241;-79
2023/10/07 00:44:31;;;;;;;9.20;4.40;;;;;;;23.92;34.75;101688.80;102854;1290;65207;-79
2023/10/07 00:49:29;;;;;;;11.70;4.60;;;;;;;23.91;34.82;101682.57;102851;1291;60566;-80
2023/10/07 00:51:56;;;;;;;9.70;4.60;;;;;;;23.92;34.76;101685.58;102841;1291;60493;-80
2023/10/07 00:57:01;;;;;;;8.20;4.40;;;;;;;23.92;34.78;101686.48;102906;1290;61282;-80
2023/10/07 00:59:26;;;;;;;9.20;4.30;;;;;;;23.91;34.78;101685.63;102873;1293;60628;-82
2023/10/07 01:01:57;;;;;;;8.90;4.70;;;;;;;23.91;34.79;101685.79;102832;1291;60597;-80
2023/10/07 01:04:24;;;;;;;8.90;4.30;;;;;;;23.91;34.67;101682.57;102788;1291;73402;-80
2023/10/07 01:07:00;;;;;;;10.00;4.60;;;;;;;23.92;34.73;101685.79;102886;1293;60576;-80
2023/10/07 01:09:28;;;;;;;8.10;4.60;;;;;;;23.91;34.75;101681.69;102941;1293;60473;-80
2023/10/07 01:11:57;;;;;;;12.30;4.80;;;;;;;23.90;34.73;101682.27;102880;1289;63810;-80
2023/10/07 01:14:29;;;;;;;8.70;4.30;;;;;;;23.91;34.68;101679.54;102874;1295;73731;-80
2023/10/07 01:16:55;;;;;;;10.60;4.30;;;;;;;23.91;34.79;101679.02;102917;1293;60477;-80
2023/10/07 01:19:30;;;;;;;9.90;4.90;;;;;;;23.91;34.57;101679.17;102830;1290;60576;-80
2023/10/07 01:22:01;;;;;;;7.00;4.30;;;;;;;23.91;34.59;101679.94;102816;1293;63921;-80
2023/10/07 01:24:34;;;;;;;7.20;4.30;;;;;;;23.91;34.62;101677.20;102868;1291;73552;-81
2023/10/07 01:27:05;;;;;;;11.00;4.40;;;;;;;23.90;34.69;101678.89;102930;1289;60559;-80
2023/10/07 01:29:32;;;;;;;9.50;4.30;;;;;;;23.90;34.68;101679.98;102902;1291;60594;-80
2023/10/07 01:31:59;;;;;;;8.00;4.40;;;;;;;23.90;34.64;101680.66;102849;1291;72446;-80
2023/10/07 01:34:34;;;;;;;7.20;4.10;;;;;;;23.90;34.62;101677.41;102873;1292;74636;-80
2023/10/07 01:37:02;;;;;;;11.70;4.50;;;;;;;23.90;34.67;101675.49;102913;1291;61788;-80
2023/10/07 01:39:31;;;;;;;8.50;4.60;;;;;;;23.90;34.59;101669.90;102879;1291;60471;-80
2023/10/07 01:42:05;;;;;;;10.50;4.60;;;;;;;23.89;34.61;101667.62;103083;1291;63924;-80
2023/10/07 01:44:32;;;;;;;11.40;5.10;;;;;;;23.90;34.63;101667.40;102885;1291;73657;-80
2023/10/07 01:46:58;;;;;;;8.20;4.50;;;;;;;23.89;34.59;101667.24;102876;1289;60581;-80
2023/10/07 01:49:30;;;;;;;6.90;4.20;;;;;;;23.89;34.66;101664.52;102874;1291;60470;-79
2023/10/07 01:51:56;;;;;;;8.60;4.30;;;;;;;23.89;34.60;101660.41;102863;1293;72456;-80
2023/10/07 01:54:22;;;;;;;8.90;4.50;;;;;;;23.89;34.60;101652.52;102842;1291;61005;-80
2023/10/07 01:56:52;;;;;;;8.50;4.30;;;;;;;23.90;34.63;101653.91;102887;1295;60487;-81
2023/10/07 01:59:18;;;;;;;9.40;4.50;;;;;;;23.89;34.56;101653.41;102912;1291;60499;-80
2023/10/07 02:01:54;;;;;;;11.80;4.40;;;;;;;23.89;34.51;101651.64;102851;1290;60599;-80
2023/10/07 02:04:26;;;;;;;11.70;4.80;;;;;;;23.89;34.58;101647.67;102798;1290;72682;-80
2023/10/07 02:06:56;;;;;;;9.90;4.40;;;;;;;23.88;34.61;101648.42;102916;1289;61776;-80
2023/10/07 02:09:25;;;;;;;10.90;4.50;;;;;;;23.88;34.62;101646.09;102884;1291;60657;-80
2023/10/07 02:11:52;;;;;;;;;;;;;;;23.89;34.53;101643.38;102830;1291;72566;-82
2023/10/07 02:14:21;;;;;;;7.60;4.20;;;;;;;23.86;34.63;101645.17;102878;1289;73497;-81
2023/10/07 02:16:46;;;;;;;12.70;4.80;;;;;;;23.86;34.57;101644.45;102903;1291;60560;-79
2023/10/07 02:19:14;;;;;;;7.30;4.30;;;;;;;23.87;34.62;101642.08;102855;1291;61064;-80
2023/10/07 02:21:41;;;;;;;8.20;4.50;;;;;;;23.86;34.62;101641.73;102584;1290;498180;-80
2023/10/07 02:24:09;;;;;;;8.40;4.20;;;;;;;23.87;34.61;101636.30;102868;1292;73187;-80
2023/10/07 02:26:34;;;;;;;10.90;4.70;;;;;;;23.86;34.54;101635.96;102957;1290;60627;-80
2023/10/07 02:29:06;;;;;;;8.90;4.50;;;;;;;23.87;34.59;101637.21;102878;1291;60515;-80
2023/10/07 02:31:42;;;;;;;8.60;4.70;;;;;;;23.87;34.58;101632.73;102841;1291;72377;-80
2023/10/07 02:34:10;;;;;;;9.70;4.70;;;;;;;23.86;34.53;101632.92;102843;1291;73705;-79
2023/10/07 02:36:51;;;;;;;7.90;4.90;;;;;;;23.86;34.56;101626.26;102888;1289;61104;-80
2023/10/07 02:39:23;;;;;;;9.10;4.80;;;;;;;23.86;34.56;101625.55;102819;1293;60483;-80
2023/10/07 02:41:50;;;;;;;9.90;4.80;;;;;;;23.86;34.53;101625.41;102846;1291;72504;-80
2023/10/07 02:44:18;;;;;;;8.80;5.00;;;;;;;23.86;34.55;101631.65;102853;1293;60942;-80
2023/10/07 02:46:49;;;;;;;8.70;4.50;;;;;;;23.87;34.53;101628.04;102964;1291;60632;-80
2023/10/07 02:49:19;;;;;;;13.40;5.40;;;;;;;23.86;34.56;101622.52;102783;1291;60570;-80
2023/10/07 02:51:47;;;;;;;12.50;5.00;;;;;;;23.86;34.60;101625.01;102813;1289;72487;-80
2023/10/07 02:54:20;;;;;;;9.80;5.90;;;;;;;23.86;34.49;101626.26;102885;1290;64938;-80
2023/10/07 02:56:54;;;;;;;10.00;5.50;;;;;;;23.87;34.55;101619.59;102866;1291;61739;-80
2023/10/07 02:59:28;;;;;;;10.30;6.00;;;;;;;23.86;34.57;101619.11;102940;1290;60604;-80
2023/10/07 03:02:12;;;;;;;9.10;5.30;;;;;;;23.86;34.58;101616.78;102854;1291;63727;-80
2023/10/07 03:07:34;;;;;;;14.00;6.10;;;;;;;23.85;34.57;101612.11;102810;1295;60664;-80
2023/10/07 03:10:19;;;;;;;11.10;6.40;;;;;;;23.85;34.54;101610.16;102845;1291;60650;-80
2023/10/07 03:12:56;;;;;;;10.30;6.40;;;;;;;23.85;34.51;101606.39;102968;1293;72436;-81
2023/10/07 03:18:00;;;;;;;11.30;6.20;;;;;;;23.85;34.57;101598.30;102850;1291;60468;-80
2023/10/07 03:20:31;;;;;;;10.10;6.10;;;;;;;23.85;34.48;101597.44;102860;1290;60580;-80
2023/10/07 03:23:25;;;;;;;10.60;5.70;;;;;;;23.84;34.53;101595.66;102851;1291;63801;-80
2023/10/07 03:28:21;;;;;;;11.70;6.20;;;;;;;23.84;34.53;101591.39;102873;1289;60528;-80
2023/10/07 03:30:51;;;;;;;10.10;5.90;;;;;;;23.83;34.56;101591.76;102929;1291;61816;-80
2023/10/07 03:33:24;;;;;;;13.30;6.10;;;;;;;23.84;34.46;101594.80;102847;1290;72455;-80
2023/10/07 03:38:25;;;;;;;11.70;6.30;;;;;;;23.83;34.49;101588.18;102993;1289;60484;-80
2023/10/07 03:40:56;;;;;;;10.20;5.90;;;;;;;23.84;34.57;101591.05;102922;1291;61311;-79
2023/10/07 03:43:26;;;;;;;10.50;5.50;;;;;;;23.84;34.42;101595.15;102846;1289;72308;-79
2023/10/07 03:45:53;;;;;;;11.10;6.00;;;;;;;23.84;34.53;101591.72;102907;1291;73677;-80
2023/10/07 03:48:24;;;;;;;12.40;5.70;;;;;;;23.84;34.46;101592.30;103006;1290;61117;-80
2023/10/07 03:51:07;;;;;;;11.30;5.40;;;;;;;23.84;34.46;101590.14;102850;1289;61563;-80
2023/10/07 03:53:44;;;;;;;13.30;5.80;;;;;;;23.84;34.51;101587.96;102895;1291;72456;-79
2023/10/07 03:56:14;;;;;;;11.70;5.20;;;;;;;23.83;34.53;101584.23;102819;1290;73484;-81
2023/10/07 03:58:43;;;;;;;10.90;5.20;;;;;;;23.83;34.49;101586.95;102877;1289;60489;-81
2023/10/07 04:01:22;;;;;;;9.10;5.60;;;;;;;23.84;34.46;101589.42;102815;1289;60744;-81
2023/10/07 04:03:52;;;;;;;9.60;5.60;;;;;;;23.83;34.48;101588.04;102880;1290;72560;-81
2023/10/07 04:06:19;;;;;;;11.00;6.00;;;;;;;23.83;34.47;101586.21;102802;1290;73706;-80
2023/10/07 04:08:47;;;;;;;10.60;5.10;;;;;;;23.83;34.46;101587.52;102840;1293;61117;-81
2023/10/07 04:11:16;;;;;;;11.00;5.70;;;;;;;23.83;34.35;101587.69;102896;1290;60571;-79
2023/10/07 04:13:44;;;;;;;9.20;5.30;;;;;;;23.83;34.45;101589.31;102936;1291;72492;-80
2023/10/07 04:16:22;;;;;;;9.60;5.30;;;;;;;23.82;34.48;101585.58;102799;1290;65121;-80
2023/10/07 04:18:53;;;;;;;10.40;5.20;;;;;;;23.83;34.49;101579.80;102909;1291;60500;-80
2023/10/07 04:21:21;;;;;;;8.90;5.20;;;;;;;23.82;34.37;101578.05;102876;1290;60529;-81
2023/10/07 04:23:46;;;;;;;8.80;5.00;;;;;;;23.82;34.38;101575.91;102887;1296;73360;-81
2023/10/07 04:26:19;;;;;;;11.60;5.50;;;;;;;23.82;34.41;101566.36;102882;1290;61127;-81
2023/10/07 04:28:59;;;;;;;10.90;5.40;;;;;;;23.82;34.39;101569.61;102886;1290;60486;-81
2023/10/07 04:31:37;;;;;;;12.00;5.60;;;;;;;23.82;34.40;101572.31;102872;1292;60583;-82
2023/10/07 04:34:15;;;;;;;9.50;5.50;;;;;;;23.82;34.40;101569.27;103056;1290;72467;-81
2023/10/07 04:39:39;;;;;;;9.20;5.00;;;;;;;23.81;34.42;101567.48;102839;1290;60609;-80
2023/10/07 04:42:13;;;;;;;9.00;5.00;;;;;;;23.81;34.44;101574.33;103033;1290;60962;-81
2023/10/07 04:47:20;;;;;;;11.00;5.20;;;;;;;23.82;34.46;101579.13;102805;1293;60687;-80
2023/10/07 04:49:58;;;;;;;11.20;5.10;;;;;;;23.82;34.49;101580.40;102890;1291;60400;-79
2023/10/07 04:52:30;;;;;;;9.60;5.40;;;;;;;23.82;34.49;101582.21;102911;1291;62168;-79
2023/10/07 04:55:13;;;;;;;9.80;5.10;;;;;;;23.82;34.49;101582.73;102889;1291;72661;-80
2023/10/07 04:58:02;;;;;;;10.10;4.90;;;;;;;23.82;34.47;101580.38;102914;1296;73616;-80
2023/10/07 05:00:47;;;;;;;14.10;5.30;;;;;;;23.82;34.38;101579.52;102848;1289;60475;-80
2023/10/07 05:03:15;;;;;;;10.10;5.10;;;;;;;23.82;34.42;101579.31;102901;1290;60474;-80
2023/10/07 05:05:43;;;;;;;11.30;5.10;;;;;;;23.82;34.45;101575.54;102879;1290;71738;-79
2023/10/07 05:08:16;;;;;;;10.20;5.60;;;;;;;23.82;34.35;101574.61;103069;1290;73498;-80
2023/10/07 05:10:42;;;;;;;11.00;5.20;;;;;;;23.82;34.42;101577.65;102885;1291;60513;-80
2023/10/07 05:13:08;;;;;;;10.20;5.40;;;;;;;23.82;34.41;101576.40;102849;1291;60692;-80
2023/10/07 05:15:54;;;;;;;;;;;;;;;;;;;;;
2023/10/07 05:18:26;;;;;;;9.60;5.40;;;;;;;23.82;34.33;101581.98;102868;1289;73607;-80
2023/10/07 05:20:52;;;;;;;11.20;5.00;;;;;;;23.82;34.37;101590.23;102871;1290;60704;-80
2023/10/07 05:23:18;;;;;;;12.50;5.00;;;;;;;23.83;34.34;101591.86;102872;1297;60614;-80
2023/10/07 05:25:49;;;;;;;11.60;5.20;;;;;;;23.83;34.34;101590.21;102979;1289;60589;-80
2023/10/07 05:28:27;;;;;;;11.20;5.30;;;;;;;23.83;34.44;101590.73;102843;1289;73754;-80
2023/10/07 05:30:53;;;;;;;13.10;5.60;;;;;;;23.83;34.36;101588.05;102858;1289;60567;-80
2023/10/07 05:33:26;;;;;;;12.00;5.50;;;;;;;23.83;34.34;101585.36;102890;1291;60560;-80
2023/10/07 05:35:58;;;;;;;10.60;5.20;;;;;;;23.82;34.38;101586.09;102859;1291;72309;-80
2023/10/07 05:38:25;;;;;;;10.60;5.50;;;;;;;23.82;34.40;101589.35;102897;1289;74073;-81
2023/10/07 05:40:53;;;;;;;11.40;5.30;;;;;;;23.82;34.37;101593.67;102896;1292;60571;-80
2023/10/07 05:43:19;;;;;;;9.60;5.20;;;;;;;23.82;34.45;101593.13;102862;1291;61686;-80
2023/10/07 05:45:45;;;;;;;9.70;5.30;;;;;;;23.83;34.37;101591.83;102861;1291;60621;-80
2023/10/07 05:48:11;;;;;;;10.60;5.10;;;;;;;23.82;34.41;101590.80;102857;1291;61077;-81
2023/10/07 05:50:38;;;;;;;11.00;5.50;;;;;;;23.83;34.39;101594.89;102883;1290;60597;-80
2023/10/07 05:53:06;;;;;;;14.00;5.60;;;;;;;23.82;34.38;101593.65;102867;1290;61067;-80
2023/10/07 05:55:33;;;;;;;11.00;5.80;;;;;;;23.82;34.43;101597.95;102908;1296;72435;-80
2023/10/07 05:58:04;;;;;;;12.90;5.80;;;;;;;23.82;34.36;101597.79;102935;1291;73335;-80
2023/10/07 06:00:33;;;;;;;9.80;5.60;;;;;;;23.82;34.39;101600.28;102908;1291;60590;-80
2023/10/07 06:02:59;;;;;;;;;;;;;;;23.82;34.38;101593.66;102847;1293;60531;-80
2023/10/07 06:05:27;;;;;;;10.50;5.50;;;;;;;23.80;34.38;101598.50;102819;1290;60572;-80
2023/10/07 06:07:55;;;;;;;10.80;5.60;;;;;;;23.81;34.32;101601.52;102833;1293;72630;-79
2023/10/07 06:10:23;;;;;;;11.40;5.90;;;;;;;23.81;34.41;101603.83;102945;1291;60595;-79
2023/10/07 06:12:49;;;;;;;10.80;5.80;;;;;;;23.81;34.39;101601.84;102877;1291;60566;-79
2023/10/07 06:15:16;;;;;;;14.20;5.80;;;;;;;23.81;34.36;101596.45;103063;1295;72442;-79
2023/10/07 06:17:42;;;;;;;10.60;5.70;;;;;;;23.81;34.36;101595.56;102858;1290;73558;-79
2023/10/07 06:20:26;;;;;;;10.90;5.70;;;;;;;23.82;34.38;101594.79;102893;1291;60595;-79
2023/10/07 06:22:59;;;;;;;9.90;5.80;;;;;;;23.81;34.35;101598.77;103060;1293;60877;-80
2023/10/07 06:25:33;;;;;;;12.70;5.90;;;;;;;23.81;34.38;101598.95;102958;1291;72562;-78
2023/10/07 06:27:59;;;;;;;10.80;5.80;;;;;;;23.82;34.41;101602.13;102909;1289;73703;-80
2023/10/07 06:30:26;;;;;;;10.40;5.70;;;;;;;23.82;34.36;101603.73;102913;1291;60692;-79
2023/10/07 06:32:55;;;;;;;9.40;5.50;;;;;;;23.82;34.38;101596.19;102850;1291;60539;-79
2023/10/07 06:35:23;;;;;;;11.60;5.50;;;;;;;23.82;34.35;101595.11;102849;1291;72522;-79
2023/10/07 06:37:51;;;;;;;13.90;5.90;;;;;;;23.82;34.35;101591.31;102900;1291;72435;-80
2023/10/07 06:40:28;;;;;;;9.70;5.60;;;;;;;23.83;34.29;101590.58;102972;1291;60579;-80
2023/10/07 06:43:01;;;;;;;10.80;5.50;;;;;;;23.83;34.38;101588.40;102857;1291;60497;-80
2023/10/07 06:45:39;;;;;;;10.50;5.70;;;;;;;23.83;34.35;101583.35;102870;1289;72663;-80
2023/10/07 06:48:08;;;;;;;10.40;5.20;;;;;;;23.83;34.44;101587.48;102900;1291;73506;-80
2023/10/07 06:50:41;;;;;;;10.00;5.30;;;;;;;23.83;34.37;101582.81;102881;1291;61557;-80
2023/10/07 06:53:11;;;;;;;11.60;5.70;;;;;;;23.84;34.43;101582.05;102934;1290;60490;-80
2023/10/07 06:55:41;;;;;;;11.50;5.80;;;;;;;23.84;34.42;101581.48;102938;1296;72303;-80
2023/10/07 06:58:09;;;;;;;9.60;5.80;;;;;;;23.84;34.49;101585.45;102968;1290;73507;-80
2023/10/07 07:00:47;;;;;;;9.20;5.20;;;;;;;23.85;34.43;101586.29;102987;1291;60563;-80
2023/10/07 07:03:19;;;;;;;12.10;5.00;;;;;;;23.85;34.54;101588.05;102836;1290;60572;-80
2023/10/07 07:05:51;;;;;;;10.60;5.50;;;;;;;23.86;34.63;101584.05;102851;1291;72270;-81
2023/10/07 07:08:22;;;;;;;9.80;5.30;;;;;;;23.86;34.53;101582.23;102848;1290;73921;-80
2023/10/07 07:11:02;;;;;;;10.10;4.70;;;;;;;23.87;34.64;101580.21;102886;1290;60513;-80
2023/10/07 07:13:34;;;;;;;9.50;5.90;;;;;;;23.87;34.66;101576.59;102900;1291;60509;-81
2023/10/07 07:16:06;;;;;;;9.50;5.20;;;;;;;23.88;34.80;101575.98;102853;1291;72531;-81
2023/10/07 07:18:39;;;;;;;9.20;5.00;;;;;;;23.88;34.74;101572.23;102940;1291;73586;-81
2023/10/07 07:21:31;;;;;;;10.00;5.50;;;;;;;23.89;34.80;101572.72;102798;1289;60583;-80
2023/10/07 07:23:58;;;;;;;8.00;5.00;;;;;;;23.89;34.81;101574.86;102851;1289;60857;-80
2023/10/07 07:26:24;;;;;;;12.00;5.60;;;;;;;23.90;34.89;101572.46;102927;1291;60684;-80
2023/10/07 07:28:56;;;;;;;10.00;5.40;;;;;;;23.91;34.97;101574.73;102928;1289;60612;-80
2023/10/07 07:31:26;;;;;;;9.70;5.20;;;;;;;23.91;34.96;101577.95;102903;1291;60590;-80
2023/10/07 07:33:52;;;;;;;9.30;5.30;;;;;;;23.91;34.93;101576.69;103077;1291;60481;-80
2023/10/07 07:36:19;;;;;;;8.40;5.30;;;;;;;23.92;34.99;101575.54;102896;1291;60681;-80
2023/10/07 07:38:45;;;;;;;8.80;5.20;;;;;;;23.93;35.01;101576.95;102878;1290;60589;-80
2023/10/07 07:41:26;;;;;;;10.80;5.30;;;;;;;23.93;35.05;101577.30;102899;1291;60672;-81
2023/10/07 07:43:58;;;;;;;9.10;5.40;;;;;;;23.94;35.15;101575.98;103007;1291;61166;-80
2023/10/07 07:46:28;;;;;;;9.20;5.50;;;;;;;23.94;35.12;101567.71;102493;1291;71294;-80
2023/10/07 07:49:08;;;;;;;10.50;5.80;;;;;;;23.95;35.20;101563.70;102754;1291;73418;-80
2023/10/07 07:51:37;;;;;;;11.30;5.40;;;;;;;23.94;35.25;101564.98;103108;1292;60679;-80
2023/10/07 07:54:07;;;;;;;8.40;5.60;;;;;;;23.96;35.21;101562.91;102778;1291;60475;-80
2023/10/07 07:56:37;;;;;;;9.40;5.50;;;;;;;23.95;35.24;101560.77;102787;1291;63926;-80
2023/10/07 07:59:15;;;;;;;9.60;5.20;;;;;;;23.96;35.24;101561.46;102728;1291;73681;-80
2023/10/07 08:01:44;;;;;;;10.70;5.40;;;;;;;23.96;35.36;101559.10;102798;1291;60523;-80
2023/10/07 08:04:34;;;;;;;9.40;5.40;;;;;;;23.97;35.37;101554.77;102678;1296;61625;-79
2023/10/07 08:07:05;;;;;;;10.20;5.00;;;;;;;23.96;35.28;101554.42;102865;1291;72525;-80
2023/10/07 08:09:36;;;;;;;7.80;4.70;;;;;;;23.97;35.33;101555.63;102762;1291;73515;-80
2023/10/07 08:12:05;;;;;;;8.00;5.10;;;;;;;23.98;35.32;101553.42;102935;1291;60582;-80
2023/10/07 08:14:33;;;;;;;10.60;5.40;;;;;;;23.98;35.37;101548.57;102912;1290;60513;-80
2023/10/07 08:17:00;;;;;;;8.50;5.50;;;;;;;23.98;35.42;101544.55;102811;1296;72375;-80
2023/10/07 08:19:26;;;;;;;9.80;5.10;;;;;;;23.98;35.37;101545.12;102889;1291;73624;-80
2023/10/07 08:21:55;;;;;;;10.50;5.30;;;;;;;23.98;35.40;101544.75;102924;1291;60598;-80
2023/10/07 08:24:21;;;;;;;10.70;5.10;;;;;;;23.99;35.47;101539.70;102914;1291;60541;-80
2023/10/07 08:26:56;;;;;;;9.20;5.60;;;;;;;23.99;35.47;101542.58;102953;1291;60655;-80
2023/10/07 08:29:34;;;;;;;12.20;5.40;;;;;;;23.99;35.44;101538.23;103198;1295;72538;-80
2023/10/07 08:32:28;;;;;;;;;;;;;;;;;;;;;
2023/10/07 08:34:51;;;;;;;9.80;5.10;;;;;;;23.99;35.54;101536.73;103032;1288;60851;-80
2023/10/07 08:37:17;;;;;;;9.10;5.10;;;;;;;24.00;35.55;101535.11;103103;1288;60568;-80
2023/10/07 08:39:46;;;;;;;7.40;5.10;;;;;;;24.00;35.49;101533.66;103202;1288;60527;-81
2023/10/07 08:42:17;;;;;;;8.40;5.30;;;;;;;24.01;35.49;101530.55;103175;1288;61149;-81
2023/10/07 08:44:51;;;;;;;9.60;5.40;;;;;;;24.00;35.50;101525.19;103084;1288;61564;-80
2023/10/07 08:47:21;;;;;;;10.90;5.50;;;;;;;24.00;35.49;101525.89;102955;1293;71195;-80
2023/10/07 08:49:46;;;;;;;;;;;;;;;24.01;35.59;101521.54;103229;1288;73559;-80
2023/10/07 08:52:16;;;;;;;10.90;5.20;;;;;;;23.99;35.60;101519.51;103376;1288;60483;-81
2023/10/07 08:54:44;;;;;;;10.30;5.50;;;;;;;23.99;35.53;101520.23;103235;1289;60666;-80
2023/10/07 08:57:18;;;;;;;9.60;5.70;;;;;;;24.00;35.50;101518.39;103147;1288;72972;-80
2023/10/07 08:59:52;;;;;;;9.50;5.10;;;;;;;24.00;35.54;101511.71;102933;1288;73674;-80
2023/10/07 09:02:26;;;;;;;8.10;4.90;;;;;;;24.00;35.55;101508.09;103162;1289;60509;-80
2023/10/07 09:04:55;;;;;;;8.00;5.10;;;;;;;24.01;35.56;101504.84;103202;1288;61757;-81
2023/10/07 09:07:22;;;;;;;9.10;5.30;;;;;;;24.01;35.58;101506.08;103187;1288;72556;-80
2023/10/07 09:09:48;;;;;;;9.60;5.10;;;;;;;24.01;35.61;101501.59;102917;1288;74787;-80
2023/10/07 09:12:14;;;;;;;7.40;4.90;;;;;;;24.01;35.68;101499.95;103212;1288;61762;-80
2023/10/07 09:14:57;;;;;;;9.70;5.30;;;;;;;24.01;35.75;101493.84;103077;1291;60589;-80
2023/10/07 09:17:26;;;;;;;11.70;5.00;;;;;;;24.01;35.71;101491.67;103118;1288;72297;-80
2023/10/07 09:19:58;;;;;;;9.60;4.90;;;;;;;24.02;35.58;101490.05;103066;1288;73649;-80
2023/10/07 09:22:35;;;;;;;7.70;4.90;;;;;;;24.02;35.59;101488.92;103051;1289;60574;-81
2023/10/07 09:25:16;;;;;;;9.90;5.50;;;;;;;24.02;35.64;101486.61;103077;1294;60559;-80
2023/10/07 09:28:01;;;;;;;8.40;5.00;;;;;;;24.01;35.64;101491.48;103029;1289;72554;-81
2023/10/07 09:33:14;;;;;;;10.20;5.90;;;;;;;24.02;35.62;101481.02;102947;1288;61172;-80
2023/10/07 09:38:41;;;;;;;8.40;4.70;;;;;;;24.03;35.76;101470.19;103109;1288;72500;-80
2023/10/07 09:41:23;;;;;;;10.00;4.90;;;;;;;24.02;35.69;101466.78;103091;1288;73715;-80
2023/10/07 09:43:57;;;;;;;10.10;5.30;;;;;;;24.02;35.67;101463.36;103144;1289;60521;-80
2023/10/07 09:46:39;;;;;;;;;;;;;;;;;;;;;
2023/10/07 09:49:06;;;;;;;9.10;5.10;;;;;;;24.02;35.72;101457.59;103178;1288;71444;-80
2023/10/07 09:51:35;;;;;;;7.80;4.70;;;;;;;24.03;35.76;101452.91;103118;1288;73614;-80
2023/10/07 09:54:36;;;;;;;9.30;4.90;;;;;;;24.02;35.70;101446.46;103202;1288;60590;-80
2023/10/07 09:57:24;;;;;;;7.80;4.70;;;;;;;24.02;35.78;101442.89;103459;1291;61183;-79
2023/10/07 10:03:59;;;;;;;7.40;4.60;;;;;;;24.02;35.82;101436.27;102872;1293;73534;-80
2023/10/07 10:06:49;;;;;;;8.60;5.00;;;;;;;24.01;35.81;101428.70;102602;1300;60494;-79
2023/10/07 10:09:23;;;;;;;8.60;4.70;;;;;;;24.02;35.69;101432.29;102132;1304;60612;-81
2023/10/07 10:15:07;;;;;;;6.80;4.40;;;;;;;24.02;35.75;101418.64;102112;1303;73540;-83
2023/10/07 10:17:48;;;;;;;8.80;4.80;;;;;;;24.02;35.79;101409.64;102119;1305;60875;-80
2023/10/07 10:20:18;;;;;;;7.80;4.60;;;;;;;24.02;35.75;101400.26;102276;1303;60721;-80
2023/10/07 10:22:52;;;;;;;8.20;4.70;;;;;;;24.02;35.78;101397.55;102070;1303;73153;-80
2023/10/07 10:28:07;;;;;;;7.50;4.50;;;;;;;24.02;35.83;101383.02;102047;1304;60664;-79
2023/10/07 10:30:44;;;;;;;8.80;5.00;;;;;;;24.02;35.81;101382.11;102117;1304;60666;-80
2023/10/07 10:33:19;;;;;;;8.30;4.60;;;;;;;24.02;35.76;101378.33;102083;1304;72499;-80
2023/10/07 10:35:49;;;;;;;9.50;4.80;;;;;;;24.02;35.75;101375.64;102070;1304;73524;-80
2023/10/07 10:38:14;;;;;;;7.50;4.40;;;;;;;24.02;35.83;101366.30;102116;1301;60630;-80
2023/10/07 10:40:45;;;;;;;8.80;5.00;;;;;;;24.02;35.75;101361.95;102154;1297;60765;-80
2023/10/07 10:43:24;;;;;;;9.70;4.60;;;;;;;24.02;35.71;101351.54;102408;1297;72624;-80
2023/10/07 10:46:05;;;;;;;9.00;5.20;;;;;;;24.02;35.76;101344.14;102342;1297;73664;-80
2023/10/07 10:48:36;;;;;;;8.30;4.80;;;;;;;24.02;35.74;101340.58;102965;1291;60581;-80
2023/10/07 10:51:09;;;;;;;9.60;4.60;;;;;;;24.02;35.84;101333.73;102970;1293;60475;-80
2023/10/07 10:53:36;;;;;;;8.10;4.80;;;;;;;24.02;35.71;101329.23;102842;1292;72656;-80
2023/10/07 10:56:02;;;;;;;7.90;4.60;;;;;;;24.02;35.75;101321.52;103022;1290;73655;-80
2023/10/07 10:58:29;;;;;;;7.70;4.60;;;;;;;24.02;35.77;101322.42;102994;1291;60860;-80
2023/10/07 11:00:55;;;;;;;8.10;4.90;;;;;;;24.02;35.77;101318.80;103057;1291;60719;-80
2023/10/07 11:03:27;;;;;;;9.10;5.20;;;;;;;24.02;35.75;101313.61;103183;1291;72534;-80
2023/10/07 11:05:53;;;;;;;9.50;4.90;;;;;;;24.02;35.73;101309.81;102949;1291;73460;-80
2023/10/07 11:08:24;;;;;;;9.70;4.70;;;;;;;24.03;35.72;101306.02;102888;1290;61281;-80
2023/10/07 11:10:55;;;;;;;7.80;4.50;;;;;;;24.03;35.70;101305.83;103207;1291;60490;-80
2023/10/07 11:13:22;;;;;;;7.20;4.60;;;;;;;24.03;35.68;101298.61;103087;1288;72383;-80
2023/10/07 11:16:04;;;;;;;6.30;4.30;;;;;;;24.03;35.70;101294.47;103159;1289;60531;-80
2023/10/07 11:18:33;;;;;;;7.70;4.80;;;;;;;24.03;35.77;101286.73;103242;1293;61828;-81
2023/10/07 11:21:02;;;;;;;7.50;4.30;;;;;;;24.03;35.75;101284.98;103647;1291;60327;-81
2023/10/07 11:23:27;;;;;;;7.00;4.50;;;;;;;24.03;35.71;101273.80;103682;1291;72338;-81
2023/10/07 11:25:55;;;;;;;8.60;4.90;;;;;;;24.03;35.72;101272.16;103198;1291;61049;-81
2023/10/07 11:28:22;;;;;;;7.90;4.50;;;;;;;24.04;35.65;101264.41;103065;1289;60602;-81
2023/10/07 11:30:49;;;;;;;7.60;4.90;;;;;;;24.04;35.73;101263.48;103142;1293;60563;-81
2023/10/07 11:33:19;;;;;;;8.50;5.00;;;;;;;24.04;35.68;101262.02;103224;1295;60513;-81
2023/10/07 11:35:59;;;;;;;7.60;4.60;;;;;;;24.04;35.69;101256.61;103031;1289;73714;-80
2023/10/07 11:38:26;;;;;;;8.90;5.20;;;;;;;24.04;35.74;101259.88;103000;1291;61191;-81
2023/10/07 11:40:52;;;;;;;8.10;4.90;;;;;;;24.04;35.65;101258.26;103021;1294;60564;-81
2023/10/07 11:43:19;;;;;;;7.20;4.60;;;;;;;24.04;35.69;101260.75;102942;1290;60532;-81
2023/10/07 11:45:45;;;;;;;7.40;4.60;;;;;;;24.04;35.61;101256.44;103091;1291;60650;-78
2023/10/07 11:48:12;;;;;;;10.00;4.80;;;;;;;24.05;35.65;101249.40;103212;1288;60641;-81
2023/10/07 11:50:38;;;;;;;8.30;4.50;;;;;;;24.05;35.64;101242.39;103551;1288;60574;-82
2023/10/07 11:53:04;;;;;;;7.70;4.60;;;;;;;24.05;35.61;101241.86;103220;1288;60643;-79
2023/10/07 11:55:33;;;;;;;7.70;5.30;;;;;;;24.04;35.61;101240.09;103439;1291;60571;-79
2023/10/07 11:58:02;;;;;;;7.40;5.00;;;;;;;24.04;35.65;101228.91;103713;1290;60586;-79
2023/10/07 12:00:29;;;;;;;8.00;4.80;;;;;;;24.05;35.63;101228.53;103484;1288;60656;-79
2023/10/07 12:02:57;;;;;;;7.70;4.80;;;;;;;24.05;35.65;101224.95;103727;1288;72550;-79
2023/10/07 12:05:29;;;;;;;8.80;4.60;;;;;;;24.05;35.58;101222.25;103426;1287;73615;-79
2023/10/07 12:07:56;;;;;;;9.40;4.80;;;;;;;24.05;35.56;101214.85;103272;1289;60517;-79
2023/10/07 12:10:22;;;;;;;10.30;4.60;;;;;;;24.05;35.67;101209.64;103358;1288;60483;-81
2023/10/07 12:12:52;;;;;;;8.60;4.50;;;;;;;24.05;35.61;101209.48;103116;1293;60570;-81
2023/10/07 12:15:18;;;;;;;6.80;4.60;;;;;;;24.05;35.60;101203.32;103268;1292;73389;-80